Time;durP1;ratioP1;P1;durP2;ratioP2;P2;SDS_P1;SDS_P2;PMS_P1;PMS_P2;Temp;Humidity;BMP_temperature;BMP_pressure;BME280_temperature;BME280_humidity;BME280_pressure;Samples;Min_cycle;Max_cycle;Signal;HPM_P1;HPM_P2
2022/02/27 00:00:50;;;;;;;31.17;18.33;;;;;;;6.86;53.72;102112.69;6132066;22;96637;-86
2022/02/27 00:03:15;;;;;;;34.60;18.87;;;;;;;6.95;53.45;102127.56;6106658;22;97240;-86
2022/02/27 00:05:41;;;;;;;34.83;18.05;;;;;;;6.94;53.80;102139.75;6131100;22;97017;-86
2022/02/27 00:08:07;;;;;;;35.50;18.83;;;;;;;6.96;53.89;102131.94;6106096;22;100413;-86
2022/02/27 00:10:32;;;;;;;34.87;18.53;;;;;;;6.91;53.83;102142.34;6131413;22;96867;-86
2022/02/27 00:12:58;;;;;;;39.77;20.73;;;;;;;6.85;54.26;102131.84;6156589;22;97042;-86
2022/02/27 00:15:23;;;;;;;33.47;18.20;;;;;;;6.88;54.13;102141.44;6131339;22;101320;-86
2022/02/27 00:17:49;;;;;;;39.33;18.77;;;;;;;6.83;53.76;102143.13;6155161;22;98006;-86
2022/02/27 00:20:15;;;;;;;36.47;19.73;;;;;;;6.70;54.08;102118.63;6105746;22;97016;-86
2022/02/27 00:22:41;;;;;;;32.77;18.10;;;;;;;6.67;54.19;102118.59;6106352;22;97073;-86
2022/02/27 00:25:07;;;;;;;36.33;18.80;;;;;;;6.66;54.20;102111.59;6106630;22;99823;-87
2022/02/27 00:27:37;;;;;;;35.87;19.20;;;;;;;6.64;54.46;102108.13;6105977;22;102244;-86
2022/02/27 00:30:06;;;;;;;28.00;16.43;;;;;;;6.78;54.09;102133.50;6131366;22;96752;-87
2022/02/27 00:32:32;;;;;;;34.80;19.07;;;;;;;6.83;54.22;102138.75;6131100;22;96787;-86
2022/02/27 00:34:57;;;;;;;32.73;18.27;;;;;;;6.84;54.40;102139.66;6105627;22;100159;-86
2022/02/27 00:37:24;;;;;;;33.60;17.97;;;;;;;6.80;54.27;102134.38;6106297;22;99907;-87
2022/02/27 00:39:49;;;;;;;34.95;17.90;;;;;;;6.81;54.67;102140.50;6105792;22;96899;-86
2022/02/27 00:42:15;;;;;;;32.97;17.33;;;;;;;6.78;54.35;102141.34;6106536;22;96835;-86
2022/02/27 00:44:41;;;;;;;32.33;16.55;;;;;;;6.85;54.57;102144.00;6129094;22;101386;-88
2022/02/27 00:47:07;;;;;;;33.27;16.13;;;;;;;6.79;54.07;102137.00;6131096;22;98241;-87
2022/02/27 00:49:33;;;;;;;29.25;16.35;;;;;;;6.80;54.09;102141.34;6155442;22;96562;-86
2022/02/27 00:51:59;;;;;;;25.57;16.13;;;;;;;6.76;54.13;102148.28;6106088;22;96525;-87
2022/02/27 00:54:26;;;;;;;30.80;16.40;;;;;;;6.74;54.26;102144.75;6132143;22;98112;-86
2022/02/27 00:56:51;;;;;;;29.63;16.27;;;;;;;6.68;53.94;102143.81;6107366;22;100201;-87
2022/02/27 00:59:19;;;;;;;26.83;15.90;;;;;;;6.66;54.04;102138.63;6133013;22;96928;-86
2022/02/27 01:01:45;;;;;;;31.17;16.10;;;;;;;6.38;54.17;102098.28;6132986;22;96803;-85
2022/02/27 01:04:11;;;;;;;32.00;15.47;;;;;;;6.66;54.50;102137.72;6107337;22;101102;-87
2022/02/27 01:06:37;;;;;;;28.47;15.70;;;;;;;6.64;54.25;102148.16;6106921;22;101139;-86
2022/02/27 01:09:03;;;;;;;31.27;16.73;;;;;;;6.65;54.22;102151.63;6131076;22;96549;-87
2022/02/27 01:11:31;;;;;;;31.47;17.33;;;;;;;6.53;54.01;102131.50;6157664;22;96561;-87
2022/02/27 01:13:56;;;;;;;31.27;17.47;;;;;;;6.63;54.08;102142.91;6106724;22;100032;-86
2022/02/27 01:16:23;;;;;;;31.13;17.70;;;;;;;6.50;54.61;102121.03;6131568;22;99959;-87
2022/02/27 01:18:49;;;;;;;36.60;18.30;;;;;;;6.51;54.27;102126.25;6130982;22;97203;-86
2022/02/27 01:21:15;;;;;;;31.93;16.27;;;;;;;6.58;54.82;102140.25;6131844;22;96828;-87
2022/02/27 01:23:45;;;;;;;36.20;16.97;;;;;;;6.54;54.51;102144.56;6131761;22;101325;-87
2022/02/27 01:26:12;;;;;;;36.37;17.07;;;;;;;6.44;54.46;102132.25;6158186;22;98281;-87
2022/02/27 01:28:37;;;;;;;41.97;18.23;;;;;;;6.45;54.46;102139.22;6132805;22;96890;-86
2022/02/27 01:31:04;;;;;;;36.97;17.23;;;;;;;6.08;54.22;102075.31;6131694;22;96644;-86
2022/02/27 01:33:29;;;;;;;35.35;18.02;;;;;;;6.47;54.59;102147.94;6131208;22;98095;-87
2022/02/27 01:35:55;;;;;;;36.27;18.60;;;;;;;6.43;54.86;102140.94;6130884;22;98229;-86
2022/02/27 01:38:21;;;;;;;38.03;18.13;;;;;;;6.19;54.92;102109.34;6131302;22;96926;-87
2022/02/27 01:40:46;;;;;;;32.67;17.67;;;;;;;6.39;54.95;102140.88;6155663;22;97148;-87
2022/02/27 01:43:12;;;;;;;38.80;19.23;;;;;;;6.33;54.77;102134.72;6130287;22;102038;-87
2022/02/27 01:45:38;;;;;;;41.23;19.33;;;;;;;6.32;54.67;102133.00;6131085;22;97807;-86
2022/02/27 01:48:04;;;;;;;36.80;18.63;;;;;;;6.38;54.66;102146.97;6156350;22;96742;-87
2022/02/27 01:50:30;;;;;;;42.23;20.20;;;;;;;6.30;54.76;102133.81;6130827;22;96814;-87
2022/02/27 01:52:55;;;;;;;36.20;18.50;;;;;;;6.22;55.37;102122.41;6105708;22;100133;-86
2022/02/27 01:55:21;;;;;;;40.83;20.20;;;;;;;6.21;55.23;102126.75;6132091;22;97791;-87
2022/02/27 01:57:47;;;;;;;44.37;20.93;;;;;;;6.20;54.83;102129.38;6106881;22;96545;-89
2022/02/27 02:00:14;;;;;;;43.67;21.00;;;;;;;6.17;54.98;102121.47;6107426;22;96796;-87
2022/02/27 02:02:39;;;;;;;40.40;19.73;;;;;;;5.99;55.21;102107.38;6131629;22;98042;-86
2022/02/27 02:05:05;;;;;;;43.27;21.57;;;;;;;6.18;54.81;102129.31;6130651;22;100925;-86
2022/02/27 02:07:32;;;;;;;40.00;19.57;;;;;;;6.09;55.21;102124.88;6107602;22;96551;-86
2022/02/27 02:09:57;;;;;;;36.53;18.97;;;;;;;6.01;55.29;102115.19;6106736;22;96511;-86
2022/02/27 02:12:23;;;;;;;39.73;21.60;;;;;;;6.09;55.29;102134.44;6106926;22;100660;-86
2022/02/27 02:14:49;;;;;;;44.90;22.27;;;;;;;5.94;55.23;102093.38;6132046;22;100275;-85
2022/02/27 02:17:15;;;;;;;45.27;21.10;;;;;;;5.95;55.30;102112.50;6132054;22;97070;-88
2022/02/27 02:19:41;;;;;;;49.20;23.07;;;;;;;6.02;55.42;102127.38;6107306;22;96933;-86
2022/02/27 02:22:11;;;;;;;40.43;21.93;;;;;;;5.96;55.32;102130.75;6106975;22;101439;-86
2022/02/27 02:24:38;;;;;;;39.77;22.30;;;;;;;5.99;55.37;102135.16;6107016;22;101252;-87
2022/02/27 02:27:04;;;;;;;45.20;22.63;;;;;;;6.02;55.64;102137.78;6131401;22;97032;-86
2022/02/27 02:29:30;;;;;;;45.03;21.73;;;;;;;5.94;56.01;102147.25;6107395;22;96896;-86
2022/02/27 02:31:57;;;;;;;41.43;20.80;;;;;;;5.72;55.69;102104.34;6131747;22;100446;-86
2022/02/27 02:34:40;;;;;;;41.10;21.60;;;;;;;5.73;56.06;102103.47;6132764;22;98246;-86
2022/02/27 02:37:09;;;;;;;49.93;23.13;;;;;;;5.95;55.42;102139.44;6112286;22;96872;-86
2022/02/27 02:40:21;;;;;;;39.38;20.98;;;;;;;5.90;55.55;102139.38;6134608;22;96702;-86
2022/02/27 02:42:46;;;;;;;42.23;21.90;;;;;;;5.87;55.72;102126.25;6181338;22;97559;-86
2022/02/27 02:45:13;;;;;;;45.00;21.67;;;;;;;5.88;56.14;102134.97;6113326;22;100148;-86
2022/02/27 02:47:43;;;;;;;51.50;23.87;;;;;;;5.91;55.78;102135.03;6132356;22;96591;-86
2022/02/27 02:50:11;;;;;;;48.38;23.67;;;;;;;5.88;55.93;102132.38;6107563;22;96954;-86
2022/02/27 02:52:37;;;;;;;43.83;23.03;;;;;;;5.83;55.64;102127.09;6106896;22;101101;-86
2022/02/27 02:55:08;;;;;;;41.87;21.27;;;;;;;5.78;55.98;102126.13;6131400;22;101611;-86
2022/02/27 02:57:33;;;;;;;44.87;23.27;;;;;;;5.71;56.27;102118.22;6157854;22;96579;-86
2022/02/27 02:59:59;;;;;;;44.67;21.43;;;;;;;5.67;56.45;102120.78;6131636;22;96604;-86
2022/02/27 03:02:25;;;;;;;41.63;21.83;;;;;;;5.76;56.33;102127.88;6107015;22;101743;-86
2022/02/27 03:04:50;;;;;;;45.43;22.70;;;;;;;5.66;56.36;102119.03;6107376;22;101116;-86
2022/02/27 03:07:16;;;;;;;45.63;22.40;;;;;;;5.64;56.17;102122.44;6107390;22;96618;-84
2022/02/27 03:09:41;;;;;;;45.80;22.77;;;;;;;5.65;56.28;102122.50;6132293;22;96892;-86
2022/02/27 03:12:07;;;;;;;43.67;22.57;;;;;;;5.55;56.38;102117.97;6131256;22;97771;-86
2022/02/27 03:14:33;;;;;;;43.03;22.33;;;;;;;5.53;56.67;102124.91;6131696;22;101240;-86
2022/02/27 03:16:58;;;;;;;46.43;23.03;;;;;;;5.42;56.59;102108.25;6106884;22;96547;-86
2022/02/27 03:19:24;;;;;;;43.00;21.40;;;;;;;5.45;56.54;102131.72;6107525;22;96902;-85
2022/02/27 03:21:49;;;;;;;44.57;22.40;;;;;;;5.41;56.42;102117.78;6131221;22;101488;-86
2022/02/27 03:24:15;;;;;;;44.17;22.33;;;;;;;5.47;56.59;102127.44;6131477;22;100162;-85
2022/02/27 03:26:41;;;;;;;40.87;22.80;;;;;;;5.37;56.63;102117.69;6131871;22;96621;-86
2022/02/27 03:29:07;;;;;;;50.77;24.17;;;;;;;5.34;56.69;102108.09;6132287;22;96918;-84
2022/02/27 03:31:34;;;;;;;47.20;23.17;;;;;;;5.47;56.59;102135.25;6131219;22;100879;-86
2022/02/27 03:34:00;;;;;;;41.77;22.53;;;;;;;5.45;56.20;102132.59;6131435;22;101202;-86
2022/02/27 03:36:25;;;;;;;45.83;23.03;;;;;;;5.47;56.33;102132.63;6131374;22;97957;-86
2022/02/27 03:38:51;;;;;;;49.60;23.03;;;;;;;5.39;56.62;102137.72;6107259;22;96959;-86
2022/02/27 03:41:17;;;;;;;47.73;23.27;;;;;;;5.18;56.37;102095.72;6106346;22;100194;-86
2022/02/27 03:43:42;;;;;;;45.50;21.97;;;;;;;5.33;56.74;102132.41;6157201;22;98044;-86
2022/02/27 03:46:08;;;;;;;42.43;21.33;;;;;;;5.30;56.29;102128.88;6156881;22;96866;-86
2022/02/27 03:48:33;;;;;;;40.87;22.83;;;;;;;5.20;56.66;102125.22;6132066;22;96799;-85
2022/02/27 03:50:59;;;;;;;46.90;24.03;;;;;;;5.27;57.02;102129.72;6156048;22;98582;-86
2022/02/27 03:53:25;;;;;;;49.30;23.73;;;;;;;5.25;56.67;102131.41;6132934;22;96636;-86
2022/02/27 03:55:50;;;;;;;45.00;22.77;;;;;;;5.10;56.77;102119.00;6107265;22;96580;-86
2022/02/27 03:58:16;;;;;;;45.27;23.40;;;;;;;5.23;56.86;102135.69;6132326;22;96877;-86
2022/02/27 04:00:42;;;;;;;43.77;22.13;;;;;;;5.17;56.63;102136.47;6130885;22;101209;-85
2022/02/27 04:03:08;;;;;;;52.20;23.97;;;;;;;5.12;56.94;102138.13;6131249;22;101196;-86
2022/02/27 04:05:34;;;;;;;46.60;25.23;;;;;;;5.05;56.70;102138.00;6157343;22;96896;-86
2022/02/27 04:08:00;;;;;;;50.73;24.00;;;;;;;5.10;56.93;102154.59;6107216;22;96759;-86
2022/02/27 04:10:26;;;;;;;41.40;21.80;;;;;;;4.99;57.07;102147.44;6106180;22;101534;-87
2022/02/27 04:12:52;;;;;;;41.17;22.93;;;;;;;5.07;56.96;102147.59;6131402;22;101666;-86
2022/02/27 04:15:17;;;;;;;45.37;22.70;;;;;;;4.97;56.66;102125.75;6106445;22;96664;-86
2022/02/27 04:17:43;;;;;;;41.47;22.17;;;;;;;5.09;56.96;102148.50;6132449;22;96834;-86
2022/02/27 04:20:09;;;;;;;45.33;23.90;;;;;;;5.06;56.87;102155.34;6131045;22;98288;-85
2022/02/27 04:22:35;;;;;;;43.43;22.77;;;;;;;5.09;56.90;102158.91;6106886;22;101814;-86
2022/02/27 04:25:00;;;;;;;45.23;22.70;;;;;;;5.08;56.85;102149.34;6106112;22;96637;-86
2022/02/27 04:27:26;;;;;;;45.27;24.47;;;;;;;4.99;57.08;102151.78;6107226;22;96892;-86
2022/02/27 04:29:52;;;;;;;43.97;22.67;;;;;;;4.98;57.58;102152.63;6106644;22;100153;-86
2022/02/27 04:32:17;;;;;;;41.27;22.03;;;;;;;4.91;56.95;102137.75;6106674;22;101094;-86
2022/02/27 04:34:43;;;;;;;46.80;24.67;;;;;;;4.92;57.05;102139.50;6106825;22;96961;-86
2022/02/27 04:37:08;;;;;;;45.97;22.87;;;;;;;4.97;57.04;102154.38;6131607;22;96889;-86
2022/02/27 04:39:34;;;;;;;43.80;23.07;;;;;;;4.78;57.00;102139.25;6130987;22;101638;-86
2022/02/27 04:41:59;;;;;;;46.40;23.97;;;;;;;4.67;57.16;102131.22;6107051;22;101384;-86
2022/02/27 04:44:25;;;;;;;44.77;24.23;;;;;;;4.77;57.17;102147.91;6131509;22;96528;-88
2022/02/27 04:46:51;;;;;;;44.57;22.77;;;;;;;4.79;57.29;102148.81;6131700;22;96895;-85
2022/02/27 04:49:16;;;;;;;46.13;24.10;;;;;;;4.84;57.48;102164.50;6105483;22;101309;-86
2022/02/27 04:51:42;;;;;;;44.37;22.37;;;;;;;4.82;57.38;102166.19;6106489;22;100123;-86
2022/02/27 04:54:07;;;;;;;47.03;23.53;;;;;;;4.81;57.10;102170.53;6131215;22;96527;-85
2022/02/27 04:56:33;;;;;;;48.37;23.67;;;;;;;4.72;57.33;102155.63;6131651;22;96738;-86
2022/02/27 04:58:59;;;;;;;47.63;23.90;;;;;;;4.73;57.19;102162.56;6106541;22;100749;-86
2022/02/27 05:01:24;;;;;;;48.17;23.23;;;;;;;4.45;57.46;102123.84;6130690;22;97230;-86
2022/02/27 05:03:50;;;;;;;49.17;24.73;;;;;;;4.77;57.39;102173.94;6131497;22;96504;-86
2022/02/27 05:06:15;;;;;;;47.80;25.20;;;;;;;4.74;57.48;102173.84;6106846;22;96778;-86
2022/02/27 05:08:41;;;;;;;41.47;23.87;;;;;;;4.71;57.11;102172.09;6156148;22;97402;-86
2022/02/27 05:11:06;;;;;;;44.00;23.13;;;;;;;4.67;57.23;102178.06;6155155;22;101310;-85
2022/02/27 05:13:32;;;;;;;46.57;24.67;;;;;;;4.67;57.59;102183.25;6106051;22;96536;-86
2022/02/27 05:15:58;;;;;;;47.57;25.23;;;;;;;4.64;57.32;102180.59;6130492;22;96787;-86
2022/02/27 05:18:23;;;;;;;51.03;25.57;;;;;;;4.59;57.55;102187.44;6105696;22;100253;-85
2022/02/27 05:20:49;;;;;;;47.50;24.50;;;;;;;4.63;57.41;102197.06;6130090;22;101188;-88
2022/02/27 05:23:14;;;;;;;45.50;23.67;;;;;;;4.63;57.56;102198.81;6130748;22;96585;-88
2022/02/27 05:25:40;;;;;;;45.23;23.60;;;;;;;4.52;57.50;102193.38;6132203;22;96862;-89
2022/02/27 05:28:05;;;;;;;54.27;24.60;;;;;;;4.61;57.57;102216.97;6106656;22;100878;-89
2022/02/27 05:30:31;;;;;;;42.73;22.87;;;;;;;4.62;57.48;102210.03;6105067;22;100848;-86
2022/02/27 05:32:57;;;;;;;45.37;23.53;;;;;;;4.59;57.88;102203.03;6130811;22;96832;-86
2022/02/27 05:35:22;;;;;;;34.97;19.73;;;;;;;4.66;58.17;102214.47;6130309;22;96810;-86
2022/02/27 05:37:48;;;;;;;38.33;20.30;;;;;;;4.67;57.88;102208.41;6105137;22;100224;-86
2022/02/27 05:40:15;;;;;;;41.57;21.43;;;;;;;4.59;57.99;102186.56;6130164;22;101581;-86
2022/02/27 05:42:40;;;;;;;42.97;20.73;;;;;;;4.37;58.05;102154.94;6132458;22;96641;-86
2022/02/27 05:45:07;;;;;;;35.40;20.67;;;;;;;4.57;58.27;102190.84;6132042;22;96869;-86
2022/02/27 05:47:33;;;;;;;35.57;19.33;;;;;;;4.73;58.17;102227.63;6131422;22;97943;-86
2022/02/27 05:49:58;;;;;;;33.37;18.07;;;;;;;4.73;58.41;102229.34;6155929;22;100885;-86
2022/02/27 05:52:24;;;;;;;38.20;20.33;;;;;;;4.58;58.45;102197.81;6106618;22;96941;-86
2022/02/27 05:54:50;;;;;;;32.30;19.50;;;;;;;4.75;58.69;102230.25;6131752;22;96757;-86
2022/02/27 05:57:16;;;;;;;31.47;18.43;;;;;;;4.76;58.99;102234.59;6130431;22;101337;-86
2022/02/27 05:59:41;;;;;;;35.27;18.93;;;;;;;4.70;58.85;102224.94;6104932;22;100774;-86
2022/02/27 06:02:07;;;;;;;38.70;19.93;;;;;;;4.72;58.95;102231.06;6155254;22;96715;-85
2022/02/27 06:04:33;;;;;;;33.47;19.17;;;;;;;4.73;59.00;102235.41;6130245;22;97196;-87
2022/02/27 06:07:00;;;;;;;38.10;20.80;;;;;;;4.76;59.10;102245.88;6156273;22;97969;-85
2022/02/27 06:09:26;;;;;;;38.83;21.00;;;;;;;4.83;58.88;102249.50;6105792;22;101462;-86
2022/02/27 06:11:51;;;;;;;42.77;22.43;;;;;;;4.69;59.11;102227.53;6131333;22;97203;-85
2022/02/27 06:14:17;;;;;;;42.57;22.23;;;;;;;4.69;59.30;102225.81;6130687;22;96803;-88
2022/02/27 06:16:42;;;;;;;46.67;23.10;;;;;;;4.79;59.55;102254.63;6130818;22;102171;-86
2022/02/27 06:19:08;;;;;;;55.07;25.53;;;;;;;4.76;59.48;102243.28;6132654;22;101001;-88
2022/02/27 06:21:33;;;;;;;49.87;25.33;;;;;;;4.73;59.63;102239.75;6131282;22;96551;-85
2022/02/27 06:23:59;;;;;;;46.53;24.70;;;;;;;4.53;59.65;102209.00;6107050;22;96925;-90
2022/02/27 06:26:25;;;;;;;48.53;26.23;;;;;;;4.89;59.51;102261.78;6149315;22;97832;-85
2022/02/27 06:28:50;;;;;;;47.07;27.00;;;;;;;4.87;59.81;102261.72;6122992;22;100337;-86
2022/02/27 06:31:16;;;;;;;48.33;25.60;;;;;;;4.91;59.53;102257.47;6155227;22;96959;-86
2022/02/27 06:33:42;;;;;;;52.40;25.43;;;;;;;4.89;59.33;102244.44;6155834;22;96800;-87
2022/02/27 06:36:07;;;;;;;49.20;27.47;;;;;;;4.84;59.52;102235.66;6129426;22;101003;-87
2022/02/27 06:38:34;;;;;;;54.03;27.60;;;;;;;5.04;59.60;102269.00;6131217;22;97212;-86
2022/02/27 06:41:01;;;;;;;49.37;26.47;;;;;;;4.97;59.71;102260.19;6105407;22;97840;-86
2022/02/27 06:43:27;;;;;;;52.70;27.87;;;;;;;5.12;59.86;102277.81;6130638;22;96904;-87
2022/02/27 06:45:53;;;;;;;51.40;28.07;;;;;;;5.00;59.89;102270.66;6129809;22;101182;-87
2022/02/27 06:48:19;;;;;;;48.27;27.80;;;;;;;4.75;59.99;102240.66;6104980;22;100777;-86
2022/02/27 06:50:44;;;;;;;55.80;29.60;;;;;;;4.89;60.23;102272.19;6180632;22;97205;-87
2022/02/27 06:53:10;;;;;;;51.37;28.77;;;;;;;5.02;59.79;102281.09;6130196;22;96869;-87
2022/02/27 06:55:36;;;;;;;54.77;28.67;;;;;;;5.04;59.98;102285.50;6105150;22;101399;-87
2022/02/27 06:58:02;;;;;;;54.47;30.13;;;;;;;4.88;60.12;102255.66;6106286;22;101149;-87
2022/02/27 07:00:27;;;;;;;53.77;30.43;;;;;;;5.04;59.80;102288.09;6105447;22;97277;-87
2022/02/27 07:02:54;;;;;;;65.93;32.43;;;;;;;4.97;59.94;102291.41;6106662;22;96717;-86
2022/02/27 07:05:20;;;;;;;65.63;33.10;;;;;;;4.76;60.42;102276.25;6130553;22;100983;-86
2022/02/27 07:07:45;;;;;;;64.50;33.83;;;;;;;4.79;61.01;102278.91;6155955;22;97797;-86
2022/02/27 07:10:11;;;;;;;66.50;36.90;;;;;;;4.81;61.01;102294.56;6155564;22;97038;-87
2022/02/27 07:12:38;;;;;;;75.37;37.23;;;;;;;4.57;60.97;102261.97;6130374;22;96852;-86
2022/02/27 07:15:04;;;;;;;75.03;38.17;;;;;;;4.57;61.50;102306.19;6129571;22;99972;-86
2022/02/27 07:17:30;;;;;;;73.73;37.60;;;;;;;4.53;61.72;102301.75;6130618;22;98019;-86
2022/02/27 07:19:55;;;;;;;76.03;39.13;;;;;;;4.47;62.00;102291.22;6131212;22;96622;-86
2022/02/27 07:22:21;;;;;;;73.17;38.97;;;;;;;4.53;62.24;102309.56;6131105;22;96907;-86
2022/02/27 07:24:47;;;;;;;84.13;38.73;;;;;;;4.47;62.09;102302.50;6130464;22;100738;-86
2022/02/27 07:27:13;;;;;;;74.80;39.43;;;;;;;4.20;62.59;102286.28;6105565;22;100292;-88
2022/02/27 07:29:42;;;;;;;79.90;39.47;;;;;;;3.99;63.02;102278.84;6155508;22;96932;-85
2022/02/27 07:32:11;;;;;;;79.60;41.20;;;;;;;4.15;63.52;102319.94;6131947;22;96836;-86
2022/02/27 07:34:38;;;;;;;79.43;39.17;;;;;;;4.13;63.86;102310.34;6131249;22;97457;-86
2022/02/27 07:37:04;;;;;;;81.67;41.80;;;;;;;4.21;63.61;102317.50;6156411;22;98123;-86
2022/02/27 07:39:29;;;;;;;77.83;39.97;;;;;;;4.21;63.93;102319.22;6129432;22;96692;-86
2022/02/27 07:41:55;;;;;;;75.97;38.77;;;;;;;4.22;63.64;102326.19;6105933;22;96895;-86
2022/02/27 07:44:21;;;;;;;75.43;38.27;;;;;;;4.14;63.75;102327.72;6155831;22;98045;-86
2022/02/27 07:46:47;;;;;;;76.73;39.10;;;;;;;4.15;63.76;102335.53;6130869;22;100915;-86
2022/02/27 07:49:13;;;;;;;80.47;40.03;;;;;;;4.15;63.54;102337.25;6131191;22;96851;-86
2022/02/27 07:51:39;;;;;;;81.37;40.27;;;;;;;4.06;64.27;102327.53;6131062;22;96742;-85
2022/02/27 07:54:05;;;;;;;79.40;40.43;;;;;;;4.05;63.87;102311.06;6106059;22;101089;-86
2022/02/27 07:56:31;;;;;;;85.13;41.87;;;;;;;4.31;63.58;102340.28;6155147;22;98324;-85
2022/02/27 07:58:57;;;;;;;84.97;42.17;;;;;;;4.29;63.93;102328.09;6157189;22;96928;-86
2022/02/27 08:01:22;;;;;;;86.13;43.17;;;;;;;4.40;63.71;102329.22;6105352;22;96968;-87
2022/02/27 08:03:48;;;;;;;81.70;42.63;;;;;;;4.44;63.92;102336.22;6129594;22;101087;-86
2022/02/27 08:06:13;;;;;;;91.80;43.83;;;;;;;4.39;63.63;102322.25;6153166;22;97880;-87
2022/02/27 08:08:39;;;;;;;82.07;41.73;;;;;;;4.38;63.66;102335.22;6104354;22;96729;-88
2022/02/27 08:11:08;;;;;;;81.87;42.27;;;;;;;4.25;64.21;102324.53;6128737;22;96846;-87
2022/02/27 08:13:34;;;;;;;80.33;40.93;;;;;;;4.07;64.77;102321.47;6128161;22;101280;-88
2022/02/27 08:16:00;;;;;;;75.67;39.13;;;;;;;4.13;64.35;102321.66;6129401;22;98228;-88
2022/02/27 08:18:28;;;;;;;71.87;38.60;;;;;;;4.16;64.35;102337.31;6103684;22;96618;-88
2022/02/27 08:20:54;;;;;;;78.90;40.60;;;;;;;4.09;64.48;102344.06;6129485;22;96786;-88
2022/02/27 08:23:20;;;;;;;69.77;38.03;;;;;;;4.06;64.63;102348.31;6153687;22;97408;-88
2022/02/27 08:25:46;;;;;;;73.27;39.53;;;;;;;4.13;64.67;102341.53;6103839;22;101519;-88
2022/02/27 08:28:12;;;;;;;74.50;37.90;;;;;;;3.99;64.74;102339.50;6128587;22;97290;-88
2022/02/27 08:30:38;;;;;;;76.80;38.70;;;;;;;4.19;64.93;102345.19;6128471;22;97032;-91
2022/02/27 08:33:03;;;;;;;75.10;37.10;;;;;;;4.24;64.59;102342.69;6128967;22;97965;-88
2022/02/27 08:35:29;;;;;;;74.93;37.13;;;;;;;4.36;64.21;102349.91;6128165;22;101493;-86
2022/02/27 08:37:54;;;;;;;69.67;37.47;;;;;;;4.31;64.29;102336.81;6128534;22;97339;-88
2022/02/27 08:40:20;;;;;;;72.50;36.37;;;;;;;4.28;64.30;102340.22;6153437;22;97250;-89
2022/02/27 08:42:50;;;;;;;72.27;36.53;;;;;;;4.22;64.63;102328.78;6103529;22;101581;-89
2022/02/27 08:45:16;;;;;;;69.30;35.93;;;;;;;4.24;64.45;102343.56;6128907;22;101324;-88
2022/02/27 08:47:41;;;;;;;71.00;35.50;;;;;;;4.23;64.54;102344.41;6128671;22;96706;-89
2022/02/27 08:50:07;;;;;;;65.63;34.33;;;;;;;4.24;64.71;102340.97;6103569;22;96972;-88
2022/02/27 08:52:33;;;;;;;67.10;35.30;;;;;;;4.26;64.53;102354.00;6102656;22;101625;-89
2022/02/27 08:54:59;;;;;;;67.47;35.17;;;;;;;4.31;64.71;102342.88;6125491;22;100304;-89
2022/02/27 08:57:25;;;;;;;68.40;34.67;;;;;;;4.32;64.52;102338.56;6153565;22;96660;-85
2022/02/27 08:59:51;;;;;;;67.37;37.07;;;;;;;4.39;64.35;102345.63;6127725;22;96729;-85
2022/02/27 09:02:17;;;;;;;68.30;37.27;;;;;;;4.33;64.45;102322.09;6128248;22;100259;-78
2022/02/27 09:04:42;;;;;;;62.50;34.03;;;;;;;4.39;64.22;102322.25;6155562;22;97311;-86
2022/02/27 09:07:08;;;;;;;65.93;34.17;;;;;;;4.41;64.22;102340.50;6128800;22;96662;-85
2022/02/27 09:09:34;;;;;;;61.27;33.67;;;;;;;4.40;64.32;102343.94;6130958;22;96778;-88
2022/02/27 09:12:00;;;;;;;65.33;34.17;;;;;;;4.42;63.89;102329.22;6106055;22;101383;-82
2022/02/27 09:14:26;;;;;;;64.40;33.23;;;;;;;4.35;64.56;102337.75;6104994;22;101108;-89
2022/02/27 09:16:51;;;;;;;56.37;31.53;;;;;;;4.47;64.28;102348.44;6131172;22;96585;-81
2022/02/27 09:19:17;;;;;;;57.63;32.93;;;;;;;4.34;64.28;102308.28;6106346;22;97288;-83
2022/02/27 09:21:42;;;;;;;58.90;31.23;;;;;;;4.56;64.61;102334.75;6106295;22;101317;-84
2022/02/27 09:24:08;;;;;;;61.97;34.23;;;;;;;4.62;64.41;102343.56;6130088;22;98048;-80
2022/02/27 09:26:33;;;;;;;60.20;31.60;;;;;;;4.64;64.30;102334.09;6131377;22;97017;-79
2022/02/27 09:28:59;;;;;;;63.97;34.37;;;;;;;4.67;64.11;102344.56;6131412;22;96887;-85
2022/02/27 09:31:25;;;;;;;62.63;34.27;;;;;;;4.67;64.29;102336.75;6153807;22;97410;-84
2022/02/27 09:33:50;;;;;;;61.50;33.67;;;;;;;4.52;64.14;102308.69;6127974;22;99156;-86
2022/02/27 09:36:16;;;;;;;60.77;33.30;;;;;;;4.52;64.03;102307.81;6127606;22;97053;-83
2022/02/27 09:38:42;;;;;;;65.30;32.80;;;;;;;4.51;64.46;102317.34;6102497;22;96908;-84
2022/02/27 09:41:08;;;;;;;63.73;34.40;;;;;;;4.63;64.54;102315.88;6126531;22;101170;-84
2022/02/27 09:43:33;;;;;;;61.43;32.43;;;;;;;4.69;64.55;102332.47;6126408;22;101137;-84
2022/02/27 09:45:59;;;;;;;67.70;36.20;;;;;;;4.71;64.19;102322.09;6127786;22;96723;-85
2022/02/27 09:48:27;;;;;;;64.13;34.20;;;;;;;4.73;64.71;102318.69;6127147;22;96701;-85
2022/02/27 09:50:53;;;;;;;68.53;36.10;;;;;;;4.83;63.88;102327.59;6102615;22;102589;-88
2022/02/27 09:53:18;;;;;;;66.33;34.40;;;;;;;4.84;64.16;102318.91;6127757;22;97796;-87
2022/02/27 09:55:44;;;;;;;68.97;35.07;;;;;;;4.69;64.14;102285.66;6103004;22;96671;-88
2022/02/27 09:58:10;;;;;;;67.23;36.87;;;;;;;4.72;64.16;102296.13;6128691;22;96724;-84
2022/02/27 10:00:36;;;;;;;66.63;35.57;;;;;;;4.94;63.82;102320.84;6126144;22;101242;-86
2022/02/27 10:03:09;;;;;;;63.10;33.33;;;;;;;4.97;63.80;102333.06;6126448;22;101113;-84
2022/02/27 10:05:41;;;;;;;57.90;32.47;;;;;;;4.82;64.05;102293.72;6127545;22;96677;-88
2022/02/27 10:08:07;;;;;;;67.05;35.58;;;;;;;4.64;63.92;102269.06;6129079;22;97102;-86
2022/02/27 10:10:33;;;;;;;61.53;33.23;;;;;;;4.68;63.90;102265.69;6152415;22;101113;-84
2022/02/27 10:12:59;;;;;;;63.20;35.63;;;;;;;5.03;64.01;102319.28;6102877;22;101112;-84
2022/02/27 10:15:25;;;;;;;64.20;33.50;;;;;;;4.79;64.21;102271.09;6128896;22;97131;-83
2022/02/27 10:17:51;;;;;;;62.20;33.43;;;;;;;5.14;64.15;102331.69;6103922;22;97471;-85
2022/02/27 10:20:19;;;;;;;59.43;32.23;;;;;;;5.02;64.05;102299.31;6101115;22;100803;-77
2022/02/27 10:22:54;;;;;;;58.93;33.67;;;;;;;5.17;63.83;102323.06;6152738;22;97740;-76
2022/02/27 10:25:25;;;;;;;61.23;32.33;;;;;;;5.15;63.99;102320.44;6104316;22;97194;-81
2022/02/27 10:27:57;;;;;;;56.83;30.73;;;;;;;5.19;64.04;102318.78;6127704;22;96852;-78
2022/02/27 10:30:31;;;;;;;54.00;32.33;;;;;;;5.30;63.83;102316.38;6125879;22;101296;-76
2022/02/27 10:33:00;;;;;;;53.93;30.17;;;;;;;5.27;63.99;102311.13;6127685;22;97602;-76
2022/02/27 10:35:33;;;;;;;55.37;31.93;;;;;;;5.30;63.67;102300.75;6127340;22;96747;-87
2022/02/27 10:37:59;;;;;;;56.27;30.63;;;;;;;5.21;63.98;102291.91;6152910;22;97246;-83
2022/02/27 10:40:36;;;;;;;55.53;29.93;;;;;;;5.35;63.84;102305.22;6101935;22;101108;-76
2022/02/27 10:43:07;;;;;;;53.13;29.50;;;;;;;5.37;64.02;102308.69;6151952;22;97137;-75
2022/02/27 10:45:32;;;;;;;50.17;28.83;;;;;;;5.42;64.17;102309.66;6125708;22;96721;-76
2022/02/27 10:48:12;;;;;;;48.20;27.80;;;;;;;5.55;64.10;102302.06;6151777;22;97241;-77
2022/02/27 10:50:37;;;;;;;50.90;28.70;;;;;;;5.60;63.80;102303.91;6125051;22;97878;-78
2022/02/27 10:53:04;;;;;;;56.13;31.80;;;;;;;5.68;63.26;102304.94;6101800;22;101955;-80
2022/02/27 10:55:32;;;;;;;51.93;30.73;;;;;;;5.60;63.67;102277.00;6153996;22;97020;-81
2022/02/27 10:57:57;;;;;;;56.87;30.53;;;;;;;5.73;63.17;102302.41;6105254;22;97205;-81
2022/02/27 11:00:31;;;;;;;47.37;28.53;;;;;;;5.75;63.61;102294.63;6128716;22;101353;-80
2022/02/27 11:03:09;;;;;;;51.70;29.70;;;;;;;5.51;63.86;102248.19;6104750;22;101349;-81
2022/02/27 11:05:38;;;;;;;50.63;30.20;;;;;;;5.77;63.21;102291.19;6129957;22;97025;-80
2022/02/27 11:08:09;;;;;;;55.10;31.53;;;;;;;5.79;63.49;102289.50;6105439;22;96868;-79
2022/02/27 11:10:37;;;;;;;59.40;30.80;;;;;;;5.85;63.74;102297.41;6128810;22;101399;-74